createdAt,value
2022-10-10T00:09:44.297Z,53.20
2022-10-10T00:44:11.103Z,54.30
2022-10-10T00:56:56.825Z,54.90
2022-10-10T00:59:25.018Z,54.30
2022-10-10T01:35:44.670Z,55.20
2022-10-10T01:53:57.126Z,55.30
2022-10-10T02:09:19.209Z,55.40
2022-10-10T02:29:26.034Z,55.70
2022-10-10T02:37:07.102Z,55.70
2022-10-10T02:47:00.723Z,56.20
2022-10-10T03:16:32.725Z,56.60
2022-10-10T03:19:00.421Z,56.50
2022-10-10T03:28:48.978Z,56.60
2022-10-10T03:55:50.660Z,57.10
2022-10-10T04:18:20.422Z,57.20
2022-10-10T04:23:14.925Z,57.10
2022-10-10T04:35:33.430Z,57.50
2022-10-10T04:40:27.765Z,57.60
2022-10-10T06:01:38.212Z,57.70
2022-10-10T06:31:10.723Z,58.40
2022-10-10T06:36:07.544Z,58.60
2022-10-10T07:40:28.947Z,61.00
2022-10-10T08:55:43.584Z,60.80
2022-10-10T09:30:23.915Z,61.70
2022-10-10T09:41:14.047Z,62.20
2022-10-10T09:58:49.043Z,61.40
2022-10-10T10:43:27.143Z,60.90
2022-10-10T10:56:47.405Z,60.60
2022-10-10T12:39:20.905Z,55.30
2022-10-10T12:44:14.865Z,55.80
2022-10-10T13:55:27.179Z,45.60
2022-10-10T14:23:15.563Z,46.20
2022-10-10T15:09:47.641Z,46.90
2022-10-10T15:12:23.802Z,47.00
2022-10-10T15:19:45.100Z,47.20
2022-10-10T15:29:33.592Z,47.40
2022-10-10T15:44:18.671Z,47.40
2022-10-10T17:21:40.577Z,53.10
2022-10-10T17:41:23.911Z,54.20
2022-10-10T17:49:09.196Z,54.90
2022-10-10T17:51:38.004Z,55.50
2022-10-10T17:54:06.417Z,55.90
2022-10-10T17:56:33.778Z,56.40
2022-10-10T18:01:30.811Z,57.80
2022-10-10T18:03:58.537Z,58.40
2022-10-10T18:06:26.297Z,59.00
2022-10-10T18:08:54.652Z,59.90
2022-10-10T18:11:27.254Z,60.20
2022-10-10T18:14:00.877Z,60.60
2022-10-10T18:16:34.180Z,60.60
2022-10-10T18:19:03.351Z,61.60
2022-10-10T18:21:30.201Z,61.40
2022-10-10T18:23:57.211Z,61.50
2022-10-10T18:26:26.579Z,62.80
2022-10-10T18:28:55.932Z,62.30
2022-10-10T18:31:26.206Z,62.90
2022-10-10T18:33:53.834Z,63.90
2022-10-10T18:36:23.379Z,63.90
2022-10-10T18:38:50.802Z,64.60
2022-10-10T18:41:22.723Z,64.30
2022-10-10T18:43:50.907Z,64.40
2022-10-10T18:46:20.467Z,64.60
2022-10-10T18:48:52.756Z,65.00
2022-10-10T18:51:24.497Z,64.80
2022-10-10T18:53:54.873Z,64.90
2022-10-10T18:56:24.596Z,65.10
2022-10-10T18:58:55.172Z,64.90
2022-10-10T19:01:24.882Z,65.10
2022-10-10T19:03:53.289Z,64.90
2022-10-10T19:06:20.959Z,65.10
2022-10-10T19:08:47.903Z,64.60
2022-10-10T19:11:20.594Z,65.30
2022-10-10T19:13:47.855Z,65.10
2022-10-10T19:16:15.439Z,65.40
2022-10-10T19:18:42.366Z,65.10
2022-10-10T19:21:10.265Z,66.50
2022-10-10T19:23:37.850Z,65.30
2022-10-10T19:26:09.892Z,66.00
2022-10-10T19:28:37.800Z,66.00
2022-10-10T19:31:06.841Z,65.30
2022-10-10T19:33:33.958Z,66.50
2022-10-10T19:36:02.912Z,65.80
2022-10-10T19:38:30.994Z,66.40
2022-10-10T19:40:58.168Z,65.90
2022-10-10T19:43:25.203Z,66.50
2022-10-10T19:45:52.300Z,65.50
2022-10-10T19:48:21.284Z,65.40
2022-10-10T19:50:48.282Z,65.70
2022-10-10T19:53:17.769Z,65.30
2022-10-10T19:55:56.075Z,65.30
2022-10-10T20:00:50.538Z,65.40
2022-10-10T20:03:18.109Z,65.50
2022-10-10T20:05:45.030Z,66.00
2022-10-10T20:08:12.113Z,66.20
2022-10-10T20:10:43.205Z,65.60
2022-10-10T20:13:14.794Z,66.80
2022-10-10T20:15:43.770Z,66.30
2022-10-10T20:18:11.460Z,67.60
2022-10-10T20:20:43.422Z,66.90
2022-10-10T20:23:12.902Z,66.60
2022-10-10T20:25:41.265Z,67.10
2022-10-10T20:28:08.818Z,66.40
2022-10-10T20:30:41.190Z,66.60
2022-10-10T20:33:08.007Z,67.30
2022-10-10T20:35:36.081Z,67.00
2022-10-10T20:38:04.542Z,66.60
2022-10-10T20:40:31.908Z,67.20
2022-10-10T20:42:59.048Z,66.70
2022-10-10T20:45:25.845Z,67.40
2022-10-10T20:47:52.873Z,67.40
2022-10-10T20:50:19.704Z,67.10
2022-10-10T20:52:46.502Z,67.30
2022-10-10T20:55:13.404Z,67.70
2022-10-10T20:57:40.208Z,66.90
2022-10-10T21:00:07.881Z,67.30
2022-10-10T21:02:34.794Z,67.50
2022-10-10T21:05:01.654Z,67.20
2022-10-10T21:07:29.139Z,67.10
2022-10-10T21:09:56.145Z,67.20
2022-10-10T21:12:22.995Z,66.50
2022-10-10T21:14:49.772Z,66.70
2022-10-10T21:17:16.602Z,67.20
2022-10-10T21:19:43.485Z,67.30
2022-10-10T21:22:10.477Z,67.30
2022-10-10T21:24:37.305Z,67.30
2022-10-10T21:27:04.401Z,67.40
2022-10-10T21:29:31.350Z,67.50
2022-10-10T21:31:58.147Z,67.30
2022-10-10T21:34:24.938Z,68.30
2022-10-10T21:36:51.764Z,67.60
2022-10-10T21:39:18.763Z,67.60
2022-10-10T21:41:45.884Z,67.20
2022-10-10T21:44:12.729Z,67.30
2022-10-10T21:46:39.670Z,67.50
2022-10-10T21:49:08.654Z,67.60
2022-10-10T21:51:38.464Z,67.60
2022-10-10T21:54:05.890Z,67.80
2022-10-10T21:56:33.698Z,67.00
2022-10-10T21:59:01.635Z,67.60
2022-10-10T22:01:32.631Z,67.00
2022-10-10T22:04:00.564Z,66.90
2022-10-10T22:06:27.404Z,67.70
2022-10-10T22:08:57.231Z,67.20
2022-10-10T22:11:26.337Z,67.50
2022-10-10T22:13:53.620Z,67.90
2022-10-10T22:16:21.106Z,67.10
2022-10-10T22:18:48.025Z,67.40
2022-10-10T22:21:16.556Z,67.40
2022-10-10T22:23:44.845Z,67.70
2022-10-10T22:26:13.627Z,67.30
2022-10-10T22:28:40.855Z,67.60
2022-10-10T22:31:13.686Z,67.70
2022-10-10T22:33:40.855Z,68.00
2022-10-10T22:36:08.984Z,67.20
2022-10-10T22:38:42.193Z,67.50
2022-10-10T22:41:09.706Z,68.00
2022-10-10T22:43:36.599Z,67.60
2022-10-10T22:46:04.680Z,67.80
2022-10-10T22:48:31.714Z,67.90
2022-10-10T22:51:00.251Z,67.80
2022-10-10T22:53:27.249Z,67.70
2022-10-10T22:55:54.112Z,67.70
2022-10-10T22:58:21.525Z,67.90
2022-10-10T23:00:48.445Z,67.60
2022-10-10T23:03:15.360Z,67.40
2022-10-10T23:05:44.168Z,67.40
2022-10-10T23:08:11.375Z,68.50
2022-10-10T23:10:38.221Z,67.60
2022-10-10T23:13:05.051Z,67.80
2022-10-10T23:15:31.901Z,67.80
2022-10-10T23:17:58.683Z,67.90
2022-10-10T23:20:25.607Z,68.00
2022-10-10T23:22:53.431Z,68.00
2022-10-10T23:25:20.458Z,68.10
2022-10-10T23:27:47.252Z,67.80
2022-10-10T23:30:14.112Z,68.00
2022-10-10T23:32:41.298Z,67.90
2022-10-10T23:35:08.727Z,67.90
2022-10-10T23:37:35.534Z,68.00
2022-10-10T23:40:02.513Z,68.30
2022-10-10T23:42:29.310Z,67.80
2022-10-10T23:44:56.163Z,68.10
2022-10-10T23:47:23.524Z,68.10
2022-10-10T23:49:50.373Z,68.20
2022-10-10T23:52:17.565Z,68.20
2022-10-10T23:54:44.365Z,68.00
2022-10-10T23:57:11.140Z,68.20
2022-10-10T23:59:37.933Z,68.20
